createdAt,value
2019-02-22T00:01:18.351Z,23.30
2019-02-22T00:03:49.055Z,23.30
2019-02-22T00:06:19.639Z,23.20
2019-02-22T00:08:50.359Z,23.20
2019-02-22T00:11:20.935Z,23.20
2019-02-22T00:13:51.537Z,23.30
2019-02-22T00:16:22.002Z,23.20
2019-02-22T00:18:52.762Z,23.20
2019-02-22T00:21:23.436Z,23.30
2019-02-22T00:23:54.164Z,23.20
2019-02-22T00:26:24.738Z,23.20
2019-02-22T00:28:55.400Z,23.20
2019-02-22T00:31:26.211Z,23.30
2019-02-22T00:33:56.787Z,23.30
2019-02-22T00:36:27.382Z,23.20
2019-02-22T00:38:57.860Z,23.30
2019-02-22T00:41:28.645Z,23.30
2019-02-22T00:43:59.312Z,23.30
2019-02-22T00:46:30.045Z,23.30
2019-02-22T00:49:00.729Z,23.20
2019-02-22T00:51:31.372Z,23.20
2019-02-22T00:54:01.974Z,23.20
2019-02-22T00:56:32.566Z,23.20
2019-02-22T00:59:03.004Z,23.20
2019-02-22T01:01:33.617Z,23.20
2019-02-22T01:04:04.120Z,23.20
2019-02-22T01:06:34.833Z,23.20
2019-02-22T01:09:05.727Z,23.20
2019-02-22T01:11:36.239Z,23.20
2019-02-22T01:14:06.840Z,23.20
2019-02-22T01:16:37.518Z,23.20
2019-02-22T01:19:08.233Z,23.20
2019-02-22T01:21:38.806Z,23.20
2019-02-22T01:24:09.616Z,23.20
2019-02-22T01:26:40.210Z,23.20
2019-02-22T01:29:11.074Z,23.20
2019-02-22T01:31:41.543Z,23.20
2019-02-22T01:34:12.044Z,23.20
2019-02-22T01:36:42.637Z,23.20
2019-02-22T01:39:13.303Z,23.20
2019-02-22T01:41:43.813Z,23.20
2019-02-22T01:44:23.924Z,23.20
2019-02-22T01:46:54.376Z,23.20
2019-02-22T01:49:25.135Z,23.20
2019-02-22T01:51:55.864Z,23.20
2019-02-22T01:54:26.703Z,23.20
2019-02-22T01:56:57.375Z,23.20
2019-02-22T01:59:28.005Z,23.20
2019-02-22T02:01:58.692Z,23.20
2019-02-22T02:04:30.154Z,23.20
2019-02-22T02:07:00.804Z,23.20
2019-02-22T02:09:31.294Z,23.20
2019-02-22T02:12:02.191Z,23.20
2019-02-22T02:14:32.869Z,23.20
2019-02-22T02:17:03.565Z,23.20
2019-02-22T02:19:34.185Z,23.20
2019-02-22T02:22:04.906Z,23.20
2019-02-22T02:24:35.521Z,23.20
2019-02-22T02:27:06.083Z,23.20
2019-02-22T02:29:36.695Z,23.10
2019-02-22T02:32:07.323Z,23.20
2019-02-22T02:34:37.928Z,23.10
2019-02-22T02:37:08.726Z,23.10
2019-02-22T02:39:39.405Z,23.10
2019-02-22T02:42:09.960Z,23.10
2019-02-22T02:44:40.705Z,23.10
2019-02-22T02:47:11.334Z,23.10
2019-02-22T02:49:41.830Z,23.10
2019-02-22T02:52:12.652Z,23.10
2019-02-22T02:54:43.218Z,23.10
2019-02-22T02:57:13.925Z,23.10
2019-02-22T02:59:44.777Z,23.10
2019-02-22T03:02:25.144Z,23.10
2019-02-22T03:04:55.894Z,23.10
2019-02-22T03:07:46.523Z,23.10
2019-02-22T03:10:17.133Z,23.10
2019-02-22T03:12:47.928Z,23.10
2019-02-22T03:15:19.513Z,23.10
2019-02-22T03:17:50.143Z,23.10
2019-02-22T03:20:20.777Z,23.10
2019-02-22T03:22:51.689Z,23.10
2019-02-22T03:25:22.453Z,23.10
2019-02-22T03:27:52.982Z,23.10
2019-02-22T03:30:23.519Z,23.10
2019-02-22T03:32:54.121Z,23.10
2019-02-22T03:35:24.770Z,23.10
2019-02-22T03:37:55.528Z,23.10
2019-02-22T03:40:26.047Z,23.10
2019-02-22T03:42:56.764Z,23.00
2019-02-22T03:45:27.424Z,23.00
2019-02-22T03:47:58.174Z,23.00
2019-02-22T03:50:28.775Z,23.00
2019-02-22T03:53:05.961Z,23.00
2019-02-22T03:55:36.852Z,23.00
2019-02-22T03:58:07.655Z,23.10
2019-02-22T04:00:38.332Z,23.00
2019-02-22T04:03:08.921Z,23.00
2019-02-22T04:05:39.637Z,23.00
2019-02-22T04:08:10.222Z,23.00
2019-02-22T04:10:40.862Z,23.00
2019-02-22T04:13:11.622Z,23.00
2019-02-22T04:15:42.190Z,23.00
2019-02-22T04:18:16.413Z,23.00
2019-02-22T04:20:46.910Z,23.00
2019-02-22T04:23:17.713Z,23.00
2019-02-22T04:25:48.168Z,23.00
2019-02-22T04:32:18.909Z,23.00
2019-02-22T04:34:49.514Z,23.00
2019-02-22T04:37:20.209Z,23.00
2019-02-22T04:39:50.859Z,23.00
2019-02-22T04:42:21.570Z,23.00
2019-02-22T04:44:52.882Z,23.00
2019-02-22T04:47:23.288Z,23.00
2019-02-22T04:49:53.986Z,23.00
2019-02-22T04:52:24.721Z,23.00
2019-02-22T04:54:55.416Z,23.00
2019-02-22T04:57:26.122Z,23.00
2019-02-22T04:59:56.806Z,23.00
2019-02-22T05:02:27.432Z,23.00
2019-02-22T05:04:58.094Z,23.00
2019-02-22T05:07:29.035Z,23.00
2019-02-22T05:09:59.836Z,23.00
2019-02-22T05:12:30.514Z,23.00
2019-02-22T05:15:11.801Z,23.00
2019-02-22T05:17:35.735Z,23.00
2019-02-22T05:20:06.686Z,23.00
2019-02-22T05:22:37.452Z,23.00
2019-02-22T05:25:08.557Z,23.00
2019-02-22T05:27:39.356Z,22.90
2019-02-22T05:30:10.197Z,23.00
2019-02-22T05:32:40.740Z,22.90
2019-02-22T05:35:11.573Z,23.00
2019-02-22T05:37:42.373Z,23.00
2019-02-22T05:40:13.058Z,23.00
2019-02-22T05:42:43.885Z,23.00
2019-02-22T05:45:14.470Z,23.00
2019-02-22T05:47:45.147Z,23.00
2019-02-22T05:50:15.686Z,23.00
2019-02-22T05:52:46.423Z,23.00
2019-02-22T05:55:17.148Z,23.00
2019-02-22T05:57:47.891Z,23.00
2019-02-22T06:00:19.184Z,22.90
2019-02-22T06:02:49.983Z,23.00
2019-02-22T06:05:20.610Z,23.00
2019-02-22T06:07:51.283Z,23.00
2019-02-22T06:10:21.980Z,22.90
2019-02-22T06:12:52.957Z,22.90
2019-02-22T06:15:23.507Z,22.90
2019-02-22T06:17:54.358Z,22.90
2019-02-22T06:20:24.835Z,22.90
2019-02-22T06:22:55.526Z,23.00
2019-02-22T06:25:26.316Z,23.00
2019-02-22T06:27:57.013Z,23.10
2019-02-22T06:30:27.625Z,23.20
2019-02-22T06:32:58.287Z,23.20
2019-02-22T06:35:29.024Z,23.20
2019-02-22T06:37:59.772Z,23.20
2019-02-22T06:40:30.454Z,23.20
2019-02-22T06:43:01.201Z,23.20
2019-02-22T06:45:31.849Z,23.30
2019-02-22T06:48:02.437Z,23.30
2019-02-22T06:50:33.983Z,23.40
2019-02-22T06:53:06.060Z,23.50
2019-02-22T06:55:36.845Z,23.50
2019-02-22T06:58:07.461Z,23.60
2019-02-22T07:00:38.224Z,23.60
2019-02-22T07:03:08.845Z,23.70
2019-02-22T07:05:39.358Z,23.70
2019-02-22T07:08:10.138Z,23.70
2019-02-22T07:10:58.644Z,23.60
2019-02-22T07:13:30.061Z,23.60
2019-02-22T07:16:01.644Z,23.50
2019-02-22T07:18:33.238Z,23.30
2019-02-22T07:21:04.673Z,23.20
2019-02-22T07:23:37.505Z,23.20
2019-02-22T07:26:08.779Z,23.10
2019-02-22T07:28:40.385Z,23.00
2019-02-22T07:31:11.842Z,23.00
2019-02-22T07:33:43.107Z,23.00
2019-02-22T07:36:14.396Z,23.00
2019-02-22T07:38:45.726Z,23.00
2019-02-22T07:41:17.111Z,23.00
2019-02-22T07:43:48.461Z,22.90
2019-02-22T07:46:19.975Z,22.90
2019-02-22T07:48:51.230Z,22.90
2019-02-22T07:51:22.918Z,22.90
2019-02-22T07:53:54.480Z,22.90
2019-02-22T07:56:25.671Z,22.90
2019-02-22T07:58:57.046Z,22.80
2019-02-22T08:01:28.237Z,22.90
2019-02-22T08:03:59.498Z,22.90
2019-02-22T08:06:31.083Z,22.90
2019-02-22T08:09:02.276Z,23.00
2019-02-22T08:11:33.880Z,23.00
2019-02-22T08:14:04.444Z,23.00
2019-02-22T08:16:35.225Z,23.20
2019-02-22T08:19:05.800Z,23.20
2019-02-22T08:21:36.525Z,23.20
2019-02-22T08:24:07.042Z,23.30
2019-02-22T08:26:37.811Z,23.30
2019-02-22T08:29:08.626Z,23.30
2019-02-22T08:31:39.254Z,23.40
2019-02-22T08:34:09.996Z,23.50
2019-02-22T08:36:40.701Z,23.50
2019-02-22T08:39:11.322Z,23.50
2019-02-22T08:41:42.063Z,23.60
2019-02-22T08:44:12.690Z,23.70
2019-02-22T08:46:43.190Z,23.70
2019-02-22T08:49:13.886Z,23.70
2019-02-22T08:51:44.719Z,23.60
2019-02-22T08:54:15.560Z,23.60
2019-02-22T08:56:46.448Z,23.60
2019-02-22T08:59:17.042Z,23.50
2019-02-22T09:01:47.647Z,23.50
2019-02-22T09:04:18.561Z,23.50
2019-02-22T09:06:49.226Z,23.60
2019-02-22T09:09:19.884Z,23.60
2019-02-22T09:11:50.378Z,23.60
2019-02-22T09:14:21.527Z,23.50
2019-02-22T09:16:52.465Z,23.50
2019-02-22T09:19:23.124Z,23.50
2019-02-22T09:21:53.915Z,23.50
2019-02-22T09:24:24.456Z,23.50
2019-02-22T09:26:55.097Z,23.50
2019-02-22T09:29:25.691Z,23.50
2019-02-22T09:31:56.280Z,23.50
2019-02-22T09:34:26.996Z,23.50
2019-02-22T09:36:57.867Z,23.50
2019-02-22T09:39:28.485Z,23.50
2019-02-22T09:41:59.193Z,23.50
2019-02-22T09:44:29.722Z,23.50
2019-02-22T09:47:00.465Z,23.50
2019-02-22T09:49:31.083Z,23.50
2019-02-22T09:52:01.761Z,23.50
2019-02-22T09:54:32.259Z,23.40
2019-02-22T09:57:02.820Z,23.40
2019-02-22T09:59:33.408Z,23.40
2019-02-22T10:02:04.214Z,23.40
2019-02-22T10:04:34.927Z,23.40
2019-02-22T10:07:05.640Z,23.30
2019-02-22T10:09:36.477Z,23.30
2019-02-22T10:12:07.451Z,23.30
2019-02-22T10:14:38.206Z,23.30
2019-02-22T10:17:08.794Z,23.30
2019-02-22T10:19:39.303Z,23.30
2019-02-22T10:22:09.754Z,23.30
2019-02-22T10:24:40.313Z,23.30
2019-02-22T10:27:12.134Z,23.20
2019-02-22T10:29:43.053Z,23.20
2019-02-22T10:32:15.908Z,23.20
2019-02-22T10:34:46.086Z,23.30
2019-02-22T10:37:16.990Z,23.20
2019-02-22T10:39:47.551Z,23.20
2019-02-22T10:42:18.373Z,23.20
2019-02-22T10:44:48.898Z,23.20
2019-02-22T10:47:19.858Z,23.20
2019-02-22T10:49:50.466Z,23.20
2019-02-22T10:52:21.095Z,23.20
2019-02-22T10:54:51.653Z,23.20
2019-02-22T10:57:22.433Z,23.20
2019-02-22T10:59:52.840Z,23.20
2019-02-22T11:02:23.540Z,23.20
2019-02-22T11:04:54.261Z,23.20
2019-02-22T11:07:24.844Z,23.20
2019-02-22T11:09:55.600Z,23.20
2019-02-22T11:12:26.419Z,23.20
2019-02-22T11:14:57.092Z,23.20
2019-02-22T11:17:27.825Z,23.20
2019-02-22T11:19:58.568Z,23.20
2019-02-22T11:22:30.110Z,23.20
2019-02-22T11:25:01.901Z,23.20
2019-02-22T11:27:32.675Z,23.20
2019-02-22T11:30:03.567Z,23.20
2019-02-22T11:32:34.569Z,23.20
2019-02-22T11:35:05.871Z,23.20
2019-02-22T11:37:36.766Z,23.20
2019-02-22T11:40:08.007Z,23.20
2019-02-22T11:42:38.705Z,23.10
2019-02-22T11:45:09.611Z,23.20
2019-02-22T11:47:40.432Z,23.20
2019-02-22T11:50:11.194Z,23.10
2019-02-22T11:52:41.733Z,23.10
2019-02-22T11:55:12.308Z,23.10
2019-02-22T11:57:43.044Z,23.10
2019-02-22T12:00:16.314Z,23.10
2019-02-22T12:02:47.330Z,23.20
2019-02-22T12:05:17.935Z,23.20
2019-02-22T12:07:48.567Z,23.20
2019-02-22T12:10:19.283Z,23.30
2019-02-22T12:12:50.158Z,23.30
2019-02-22T12:15:20.575Z,23.20
2019-02-22T12:17:51.386Z,23.20
2019-02-22T12:20:22.094Z,23.20
2019-02-22T12:22:53.033Z,23.30
2019-02-22T12:25:23.807Z,23.30
2019-02-22T12:27:54.456Z,23.20
2019-02-22T12:30:25.777Z,23.20
2019-02-22T12:32:56.729Z,23.20
2019-02-22T12:35:27.217Z,23.20
2019-02-22T12:37:57.769Z,23.20
2019-02-22T12:40:28.269Z,23.20
2019-02-22T12:42:58.999Z,23.20
2019-02-22T12:45:29.564Z,23.30
2019-02-22T12:48:00.027Z,23.30
2019-02-22T12:50:31.282Z,23.20
2019-02-22T12:53:02.071Z,23.20
2019-02-22T12:55:32.891Z,23.20
2019-02-22T12:58:03.566Z,23.20
2019-02-22T13:00:34.196Z,23.20
2019-02-22T13:03:04.671Z,23.30
2019-02-22T13:05:35.443Z,23.20
2019-02-22T13:08:06.552Z,23.30
2019-02-22T13:10:37.158Z,23.30
2019-02-22T13:13:07.753Z,23.30
2019-02-22T13:15:38.694Z,23.30
2019-02-22T13:18:11.741Z,23.20
2019-02-22T13:20:43.031Z,23.20
2019-02-22T13:23:15.154Z,23.20
2019-02-22T13:25:46.606Z,23.20
2019-02-22T13:28:17.427Z,23.20
2019-02-22T13:30:48.312Z,23.20
2019-02-22T13:33:19.409Z,23.20
2019-02-22T13:35:51.356Z,23.20
2019-02-22T13:38:22.391Z,23.20
2019-02-22T13:40:53.473Z,23.20
2019-02-22T13:43:24.776Z,23.20
2019-02-22T13:45:55.977Z,23.20
2019-02-22T13:48:26.417Z,23.20
2019-02-22T13:50:57.118Z,23.20
2019-02-22T13:53:27.634Z,23.20
2019-02-22T13:55:58.217Z,23.20
2019-02-22T13:58:31.895Z,23.20
2019-02-22T14:01:02.829Z,23.20
2019-02-22T14:03:33.679Z,23.20
2019-02-22T14:06:04.418Z,23.20
2019-02-22T14:08:36.027Z,23.20
2019-02-22T14:11:06.510Z,23.20
2019-02-22T14:13:37.137Z,23.10
2019-02-22T14:16:07.702Z,23.10
2019-02-22T14:18:38.615Z,23.10
2019-02-22T14:21:09.387Z,23.10
2019-02-22T14:23:40.019Z,23.00
2019-02-22T14:26:10.821Z,23.00
2019-02-22T14:28:41.471Z,22.90
2019-02-22T14:31:12.198Z,22.90
2019-02-22T14:33:43.132Z,22.90
2019-02-22T14:36:13.813Z,23.00
2019-02-22T14:38:44.681Z,23.00
2019-02-22T14:41:15.312Z,23.00
2019-02-22T14:43:46.138Z,23.00
2019-02-22T14:46:25.506Z,23.00
2019-02-22T14:48:49.555Z,23.00
2019-02-22T14:51:20.215Z,23.00
2019-02-22T14:53:51.130Z,23.00
2019-02-22T14:56:21.749Z,23.00
2019-02-22T14:58:52.465Z,23.20
2019-02-22T15:01:23.749Z,23.00
2019-02-22T15:03:54.603Z,23.00
2019-02-22T15:06:26.082Z,23.00
2019-02-22T15:08:56.773Z,22.90
2019-02-22T15:11:27.541Z,22.90
2019-02-22T15:13:58.086Z,22.90
2019-02-22T15:16:46.914Z,22.90
2019-02-22T15:19:19.086Z,22.90
2019-02-22T15:21:49.869Z,22.90
2019-02-22T15:24:20.552Z,22.90
2019-02-22T15:26:53.779Z,22.90
2019-02-22T15:29:23.624Z,23.00
2019-02-22T15:31:54.430Z,23.00
2019-02-22T15:34:25.113Z,22.90
2019-02-22T15:36:55.785Z,23.00
2019-02-22T15:39:26.604Z,23.00
2019-02-22T15:41:57.250Z,23.00
2019-02-22T15:44:27.936Z,23.00
2019-02-22T15:46:58.930Z,23.00
2019-02-22T15:49:29.818Z,23.00
2019-02-22T15:52:00.286Z,22.90
2019-02-22T15:54:31.176Z,22.90
2019-02-22T15:57:01.601Z,22.90
2019-02-22T15:59:32.088Z,22.90
2019-02-22T16:02:02.682Z,22.90
2019-02-22T16:04:47.251Z,22.90
2019-02-22T16:07:18.149Z,22.90
2019-02-22T16:09:48.859Z,22.90
2019-02-22T16:12:19.352Z,22.90
2019-02-22T16:14:49.888Z,22.90
2019-02-22T16:17:20.609Z,22.90
2019-02-22T16:19:51.610Z,22.90
2019-02-22T16:22:22.315Z,22.90
2019-02-22T16:24:52.939Z,22.90
2019-02-22T16:27:23.632Z,22.90
2019-02-22T16:29:54.418Z,22.90
2019-02-22T16:32:26.829Z,22.90
2019-02-22T16:34:57.712Z,22.90
2019-02-22T16:37:28.767Z,22.90
2019-02-22T16:39:59.453Z,22.80
2019-02-22T16:42:30.151Z,22.90
2019-02-22T16:45:00.732Z,22.80
2019-02-22T16:47:39.550Z,22.80
2019-02-22T16:50:03.628Z,22.80
2019-02-22T16:52:34.425Z,22.90
2019-02-22T16:55:05.411Z,22.80
2019-02-22T16:57:36.102Z,22.90
2019-02-22T17:00:07.919Z,22.80
2019-02-22T17:02:38.756Z,22.90
2019-02-22T17:05:11.036Z,22.90
2019-02-22T17:07:41.661Z,22.90
2019-02-22T17:10:12.516Z,22.90
2019-02-22T17:12:43.133Z,22.90
2019-02-22T17:15:13.878Z,22.90
2019-02-22T17:17:44.770Z,22.90
2019-02-22T17:20:15.411Z,22.90
2019-02-22T17:22:45.930Z,22.90
2019-02-22T17:25:17.133Z,22.90
2019-02-22T17:27:48.096Z,22.90
2019-02-22T17:30:19.939Z,22.80
2019-02-22T17:32:52.390Z,22.80
2019-02-22T17:35:23.009Z,22.80
2019-02-22T17:37:53.668Z,22.80
2019-02-22T17:40:24.288Z,22.80
2019-02-22T17:42:54.822Z,22.80
2019-02-22T17:45:25.612Z,22.80
2019-02-22T17:47:56.466Z,22.80
2019-02-22T17:50:27.204Z,22.80
2019-02-22T17:52:57.895Z,22.80
2019-02-22T17:55:28.326Z,22.80
2019-02-22T17:57:59.156Z,22.80
2019-02-22T18:00:29.793Z,22.80
2019-02-22T18:03:01.544Z,22.90
2019-02-22T18:05:32.910Z,22.90
2019-02-22T18:08:05.675Z,22.90
2019-02-22T18:10:36.690Z,22.90
2019-02-22T18:13:08.649Z,23.00
2019-02-22T18:15:40.342Z,23.00
2019-02-22T18:18:13.923Z,23.00
2019-02-22T18:20:45.411Z,23.10
2019-02-22T18:23:16.884Z,23.10
2019-02-22T18:25:48.504Z,23.10
2019-02-22T18:28:19.636Z,23.10
2019-02-22T18:30:51.277Z,23.10
2019-02-22T18:33:22.759Z,23.10
2019-02-22T18:35:54.571Z,23.20
2019-02-22T18:38:25.822Z,23.20
2019-02-22T18:40:57.336Z,23.20
2019-02-22T18:43:28.562Z,23.20
2019-02-22T18:46:00.580Z,23.20
2019-02-22T18:48:31.503Z,23.20
2019-02-22T18:51:02.103Z,23.20
2019-02-22T18:53:32.879Z,23.30
2019-02-22T18:56:03.600Z,23.30
2019-02-22T18:58:34.117Z,23.40
2019-02-22T19:01:05.004Z,23.40
2019-02-22T19:03:36.329Z,23.50
2019-02-22T19:06:07.088Z,23.50
2019-02-22T19:08:37.678Z,23.50
2019-02-22T19:11:08.524Z,23.60
2019-02-22T19:13:39.188Z,23.60
2019-02-22T19:16:09.891Z,23.60
2019-02-22T19:18:41.602Z,23.70
2019-02-22T19:21:12.606Z,23.70
2019-02-22T19:23:43.970Z,23.70
2019-02-22T19:26:14.799Z,23.60
2019-02-22T19:28:45.444Z,23.60
2019-02-22T19:31:16.029Z,23.60
2019-02-22T19:33:49.583Z,23.70
2019-02-22T19:36:19.966Z,23.80
2019-02-22T19:38:51.367Z,23.80
2019-02-22T19:41:23.041Z,23.80
2019-02-22T19:43:54.008Z,23.80
2019-02-22T19:46:24.854Z,23.70
2019-02-22T19:48:56.686Z,23.80
2019-02-22T19:51:28.404Z,23.80
2019-02-22T19:53:59.555Z,23.70
2019-02-22T19:56:30.763Z,23.80
2019-02-22T19:59:02.839Z,23.70
2019-02-22T20:01:33.689Z,23.70
2019-02-22T20:04:04.564Z,23.70
2019-02-22T20:06:36.327Z,23.70
2019-02-22T20:09:08.468Z,23.70
2019-02-22T20:11:39.715Z,23.60
2019-02-22T20:14:11.224Z,23.70
2019-02-22T20:16:42.520Z,23.60
2019-02-22T20:19:13.350Z,23.60
2019-02-22T20:21:43.871Z,23.60
2019-02-22T20:24:14.591Z,23.60
2019-02-22T20:26:45.636Z,23.60
2019-02-22T20:29:16.805Z,23.60
2019-02-22T20:31:47.999Z,23.60
2019-02-22T20:34:18.782Z,23.70
2019-02-22T20:36:49.419Z,23.70
2019-02-22T20:39:20.130Z,23.70
2019-02-22T20:41:50.870Z,23.70
2019-02-22T20:44:23.670Z,23.60
2019-02-22T20:46:54.222Z,23.60
2019-02-22T20:49:25.031Z,23.50
2019-02-22T20:51:55.703Z,23.50
2019-02-22T20:54:27.018Z,23.50
2019-02-22T20:56:57.801Z,23.50
2019-02-22T20:59:29.148Z,23.40
2019-02-22T21:02:00.307Z,23.40
2019-02-22T21:04:30.942Z,23.40
2019-02-22T21:07:01.683Z,23.40
2019-02-22T21:09:32.267Z,23.40
2019-02-22T21:12:02.950Z,23.40
2019-02-22T21:14:33.583Z,23.30
2019-02-22T21:17:04.621Z,23.30
2019-02-22T21:19:37.998Z,23.30
2019-02-22T21:22:08.848Z,23.30
2019-02-22T21:24:39.698Z,23.30
2019-02-22T21:27:10.414Z,23.30
2019-02-22T21:29:41.349Z,23.30
2019-02-22T21:32:12.493Z,23.30
2019-02-22T21:34:43.132Z,23.30
2019-02-22T21:37:13.871Z,23.30
2019-02-22T21:39:45.003Z,23.20
2019-02-22T21:42:20.189Z,23.20
2019-02-22T21:44:48.985Z,23.20
2019-02-22T21:47:19.515Z,23.20
2019-02-22T21:49:50.514Z,23.20
2019-02-22T21:52:21.169Z,23.20
2019-02-22T21:54:52.004Z,23.20
2019-02-22T21:57:22.517Z,23.20
2019-02-22T21:59:53.094Z,23.20
2019-02-22T22:02:23.588Z,23.20
2019-02-22T22:04:54.349Z,23.20
2019-02-22T22:07:24.765Z,23.10
2019-02-22T22:09:55.608Z,23.20
2019-02-22T22:12:26.048Z,23.10
2019-02-22T22:14:56.623Z,23.20
2019-02-22T22:17:27.645Z,23.20
2019-02-22T22:19:58.433Z,23.10
2019-02-22T22:22:29.134Z,23.10
2019-02-22T22:25:00.309Z,23.10
2019-02-22T22:27:30.867Z,23.10
2019-02-22T22:30:01.668Z,23.10
2019-02-22T22:32:32.404Z,23.10
2019-02-22T22:35:03.330Z,23.10
2019-02-22T22:37:34.233Z,23.10
2019-02-22T22:40:05.201Z,23.10
2019-02-22T22:42:37.965Z,23.10
2019-02-22T22:45:09.453Z,23.10
2019-02-22T22:47:40.150Z,23.10
2019-02-22T22:50:12.319Z,23.00
2019-02-22T22:52:43.072Z,23.00
2019-02-22T22:55:13.828Z,23.00
2019-02-22T22:57:44.627Z,23.00
2019-02-22T23:00:58.898Z,23.00
2019-02-22T23:03:29.520Z,23.00
2019-02-22T23:06:00.172Z,23.00
2019-02-22T23:08:30.823Z,23.00
2019-02-22T23:11:01.719Z,23.00
2019-02-22T23:13:32.477Z,23.00
2019-02-22T23:16:03.145Z,23.00
2019-02-22T23:18:33.915Z,23.00
2019-02-22T23:21:04.870Z,23.00
2019-02-22T23:23:35.728Z,23.00
2019-02-22T23:26:06.239Z,23.00
2019-02-22T23:28:36.981Z,23.00
2019-02-22T23:31:07.693Z,23.00
2019-02-22T23:33:38.504Z,23.00
2019-02-22T23:36:09.204Z,23.00
2019-02-22T23:38:39.901Z,23.00
2019-02-22T23:41:11.381Z,23.00
2019-02-22T23:43:42.179Z,23.00
2019-02-22T23:46:13.077Z,23.00
2019-02-22T23:48:43.687Z,23.00
2019-02-22T23:51:14.491Z,23.00
2019-02-22T23:53:45.111Z,22.90
2019-02-22T23:56:15.877Z,23.00
2019-02-22T23:58:47.072Z,23.00
